Time;durP1;ratioP1;P1;durP2;ratioP2;P2;SDS_P1;SDS_P2;PMS_P1;PMS_P2;Temp;Humidity;BMP_temperature;BMP_pressure;BME280_temperature;BME280_humidity;BME280_pressure;Samples;Min_cycle;Max_cycle;Signal;HPM_P1;HPM_P2
2023/05/19 00:02:08;;;;;;;7.50;1.90;;;11.20;93.80;;;;;;4955721;28;20045;-72
2023/05/19 00:04:36;;;;;;;7.90;2.75;;;11.10;93.90;;;;;;4980234;28;20081;-73
2023/05/19 00:07:02;;;;;;;8.77;2.92;;;11.10;93.80;;;;;;4954843;28;20048;-72
2023/05/19 00:09:30;;;;;;;8.85;2.42;;;11.10;93.80;;;;;;4967628;28;20130;-73
2023/05/19 00:11:56;;;;;;;11.85;2.97;;;11.10;93.70;;;;;;4974927;28;20088;-72
2023/05/19 00:14:23;;;;;;;5.68;2.25;;;11.10;93.90;;;;;;4997174;28;20085;-72
2023/05/19 00:16:49;;;;;;;7.20;2.25;;;11.10;94.00;;;;;;4980909;28;20050;-73
2023/05/19 00:19:16;;;;;;;5.50;2.30;;;11.10;94.20;;;;;;4961844;28;20049;-73
2023/05/19 00:21:42;;;;;;;8.65;2.45;;;11.10;94.20;;;;;;4963177;28;20129;-73
2023/05/19 00:24:07;;;;;;;7.78;2.30;;;11.00;94.20;;;;;;4988703;28;20391;-72
2023/05/19 00:26:33;;;;;;;7.43;2.42;;;11.00;94.20;;;;;;4996042;28;20061;-72
2023/05/19 00:28:59;;;;;;;7.97;2.08;;;11.00;94.30;;;;;;4973673;28;20059;-72
2023/05/19 00:31:27;;;;;;;10.15;2.22;;;11.00;94.40;;;;;;4988029;28;20077;-73
2023/05/19 00:33:53;;;;;;;6.30;2.30;;;11.00;94.30;;;;;;4976625;28;20045;-73
2023/05/19 00:36:20;;;;;;;9.18;2.55;;;11.00;94.60;;;;;;4986191;28;20448;-72
2023/05/19 00:38:45;;;;;;;10.15;2.88;;;11.00;94.50;;;;;;4970112;28;20117;-73
2023/05/19 00:41:11;;;;;;;7.22;2.40;;;11.00;94.40;;;;;;4976749;28;20535;-73
2023/05/19 00:43:37;;;;;;;10.43;2.38;;;11.00;94.70;;;;;;4958176;28;20047;-72
2023/05/19 00:46:05;;;;;;;6.97;2.35;;;11.00;94.80;;;;;;4964431;28;20545;-72
2023/05/19 00:48:31;;;;;;;9.85;2.75;;;11.00;94.80;;;;;;4964246;28;20498;-72
2023/05/19 00:51:02;;;;;;;6.18;2.40;;;10.90;94.80;;;;;;4974665;28;20089;-71
2023/05/19 00:53:34;;;;;;;9.38;2.50;;;10.90;95.00;;;;;;4974897;28;20136;-72
2023/05/19 00:56:00;;;;;;;7.97;2.67;;;10.90;95.20;;;;;;4973363;28;20068;-72
2023/05/19 00:58:31;;;;;;;8.25;2.88;;;10.90;95.30;;;;;;4979385;28;20077;-71
2023/05/19 01:01:02;;;;;;;7.45;2.58;;;10.90;95.20;;;;;;4974021;28;20160;-72
2023/05/19 01:03:31;;;;;;;8.52;2.85;;;10.90;95.10;;;;;;4952207;28;20077;-71
2023/05/19 01:06:03;;;;;;;9.65;2.47;;;10.90;95.10;;;;;;4954909;28;20077;-71
2023/05/19 01:08:44;;;;;;;8.10;2.50;;;10.90;95.20;;;;;;4971796;28;20451;-71
2023/05/19 01:11:10;;;;;;;10.18;2.65;;;10.90;95.30;;;;;;4990996;28;20069;-71
2023/05/19 01:13:36;;;;;;;7.28;2.53;;;10.90;95.30;;;;;;4946331;28;20419;-72
2023/05/19 01:16:17;;;;;;;9.57;3.10;;;10.90;95.30;;;;;;4979578;28;20056;-71
2023/05/19 01:19:20;;;;;;;8.30;2.53;;;10.90;95.50;;;;;;4986253;28;20364;-71
2023/05/19 01:22:11;;;;;;;11.77;2.60;;;10.80;95.50;;;;;;4989233;28;20054;-72
2023/05/19 01:25:16;;;;;;;9.15;2.88;;;10.80;95.70;;;;;;4989031;28;20077;-71
2023/05/19 01:28:07;;;;;;;8.30;2.88;;;10.80;95.80;;;;;;5004802;28;20387;-71
2023/05/19 01:30:52;;;;;;;9.32;3.00;;;10.80;95.90;;;;;;4963844;28;20050;-72
2023/05/19 01:33:18;;;;;;;7.72;3.08;;;10.80;96.10;;;;;;4969990;28;20050;-71
2023/05/19 01:35:43;;;;;;;8.32;2.75;;;10.80;96.20;;;;;;4966132;28;20064;-72
2023/05/19 01:38:10;;;;;;;9.68;2.97;;;10.80;96.30;;;;;;4959265;28;20391;-72
2023/05/19 01:40:36;;;;;;;9.02;2.90;;;10.80;96.30;;;;;;4978328;28;20133;-72
2023/05/19 01:43:02;;;;;;;7.30;2.95;;;10.80;96.40;;;;;;4980420;28;20474;-71
2023/05/19 01:45:31;;;;;;;8.68;3.13;;;10.80;96.40;;;;;;4958886;28;20059;-72
2023/05/19 01:47:59;;;;;;;7.88;2.78;;;10.80;96.50;;;;;;4956395;28;20533;-72
2023/05/19 01:50:25;;;;;;;11.98;3.13;;;10.70;96.50;;;;;;4957305;28;20426;-71
2023/05/19 01:52:51;;;;;;;6.68;2.78;;;10.70;96.80;;;;;;4965049;28;20047;-72
2023/05/19 01:55:17;;;;;;;6.65;2.47;;;10.70;96.70;;;;;;4974763;28;20060;-71
2023/05/19 01:58:20;;;;;;;10.10;3.35;;;10.70;96.80;;;;;;4992025;28;20149;-72
2023/05/19 02:00:52;;;;;;;10.75;3.17;;;10.70;97.00;;;;;;4988329;28;20038;-71
2023/05/19 02:03:56;;;;;;;11.10;2.85;;;10.70;97.00;;;;;;4997901;28;20763;-72
2023/05/19 02:06:48;;;;;;;9.98;2.75;;;10.70;97.20;;;;;;5016370;28;20130;-72
2023/05/19 02:09:18;;;;;;;8.57;2.70;;;10.70;97.10;;;;;;4992088;28;20046;-71
2023/05/19 02:12:11;;;;;;;7.88;2.50;;;10.60;97.20;;;;;;5014070;28;20072;-72
2023/05/19 02:15:05;;;;;;;7.53;2.70;;;10.60;97.30;;;;;;4976987;28;20558;-72
2023/05/19 02:17:32;;;;;;;11.20;2.75;;;10.70;97.30;;;;;;4988020;28;20085;-72
2023/05/19 02:19:57;;;;;;;11.18;3.38;;;10.60;97.40;;;;;;4959792;28;20034;-72
2023/05/19 02:22:25;;;;;;;15.10;3.00;;;10.60;97.70;;;;;;4977611;28;20042;-72
2023/05/19 02:24:50;;;;;;;7.63;2.65;;;10.60;97.80;;;;;;4998420;28;20056;-71
2023/05/19 02:27:17;;;;;;;7.35;2.30;;;10.60;98.00;;;;;;5008325;28;20049;-71
2023/05/19 02:29:44;;;;;;;7.80;2.95;;;10.60;97.90;;;;;;4974775;28;20371;-72
2023/05/19 02:32:10;;;;;;;9.50;3.17;;;10.50;97.80;;;;;;4986676;28;20482;-72
2023/05/19 02:34:36;;;;;;;6.88;2.67;;;10.50;97.80;;;;;;4959183;28;20060;-72
2023/05/19 02:37:02;;;;;;;8.98;2.80;;;10.50;97.80;;;;;;4972741;28;20042;-72
2023/05/19 02:39:33;;;;;;;7.82;2.80;;;10.50;98.00;;;;;;4975066;28;20042;-72
2023/05/19 02:42:00;;;;;;;11.05;3.08;;;10.50;98.30;;;;;;4986768;28;20470;-72
2023/05/19 02:44:25;;;;;;;11.88;2.72;;;10.40;98.50;;;;;;4980494;28;20708;-72
2023/05/19 02:46:51;;;;;;;6.82;2.90;;;10.30;98.70;;;;;;4965048;28;20053;-72
2023/05/19 02:49:17;;;;;;;8.70;2.83;;;10.30;98.70;;;;;;4962709;28;20660;-72
2023/05/19 02:51:42;;;;;;;8.55;2.88;;;10.30;98.70;;;;;;4968856;28;20623;-72
2023/05/19 02:54:08;;;;;;;9.77;2.75;;;10.30;98.90;;;;;;5010639;28;20140;-71
2023/05/19 02:56:34;;;;;;;13.20;2.83;;;10.30;98.90;;;;;;4957047;28;20060;-72
2023/05/19 02:59:01;;;;;;;13.23;3.25;;;10.30;98.90;;;;;;4995321;28;20046;-71
2023/05/19 03:01:27;;;;;;;9.20;3.08;;;10.30;98.90;;;;;;4973317;28;20116;-72
2023/05/19 03:03:54;;;;;;;6.45;2.97;;;10.30;98.90;;;;;;4997085;28;20497;-72
2023/05/19 03:06:22;;;;;;;10.38;2.58;;;10.30;99.00;;;;;;4942949;28;20136;-72
2023/05/19 03:08:47;;;;;;;11.18;3.20;;;10.30;99.10;;;;;;4965765;28;20056;-72
2023/05/19 03:11:14;;;;;;;9.60;3.05;;;10.20;99.30;;;;;;5004569;28;20117;-72
2023/05/19 03:13:41;;;;;;;8.35;2.70;;;10.20;99.20;;;;;;4958520;28;20060;-72
2023/05/19 03:16:07;;;;;;;7.65;2.60;;;10.20;99.20;;;;;;4996861;28;20071;-71
2023/05/19 03:18:33;;;;;;;9.98;2.53;;;10.10;99.20;;;;;;4962159;28;20374;-71
2023/05/19 03:21:00;;;;;;;10.63;3.10;;;10.10;99.40;;;;;;4968742;28;20042;-72
2023/05/19 03:23:26;;;;;;;8.73;2.90;;;10.10;99.50;;;;;;4956426;28;20046;-71
2023/05/19 03:25:54;;;;;;;7.57;2.67;;;10.10;99.50;;;;;;4980609;28;20076;-72
2023/05/19 03:28:22;;;;;;;5.47;2.60;;;10.10;99.50;;;;;;4995036;28;20064;-72
2023/05/19 03:30:49;;;;;;;11.93;3.50;;;10.10;99.50;;;;;;4996341;28;20077;-72
2023/05/19 03:33:15;;;;;;;10.07;3.13;;;10.10;99.50;;;;;;5000365;28;20131;-72
2023/05/19 03:35:45;;;;;;;13.23;3.40;;;10.00;99.80;;;;;;4964858;28;20089;-71
2023/05/19 03:38:11;;;;;;;9.00;3.10;;;10.00;99.80;;;;;;4963903;28;20052;-72
2023/05/19 03:40:40;;;;;;;7.85;2.72;;;10.00;99.90;;;;;;4978600;28;20350;-72
2023/05/19 03:43:06;;;;;;;7.05;2.70;;;10.00;99.90;;;;;;4962730;28;20387;-72
2023/05/19 03:45:32;;;;;;;12.50;3.97;;;10.00;99.90;;;;;;4969860;28;20049;-72
2023/05/19 03:47:58;;;;;;;13.43;3.17;;;10.00;99.90;;;;;;5007195;28;20060;-72
2023/05/19 03:50:23;;;;;;;8.23;3.50;;;10.00;99.90;;;;;;4962504;28;20061;-72
2023/05/19 03:52:49;;;;;;;7.53;2.88;;;9.90;99.90;;;;;;4990788;28;20589;-72
2023/05/19 03:55:15;;;;;;;9.57;3.15;;;10.00;99.90;;;;;;4982611;28;20492;-71
2023/05/19 03:57:43;;;;;;;7.53;3.25;;;10.00;99.90;;;;;;4987576;28;20038;-72
2023/05/19 04:00:12;;;;;;;11.02;3.10;;;10.00;99.90;;;;;;4957863;28;20047;-72
2023/05/19 04:02:38;;;;;;;8.45;3.13;;;10.00;99.90;;;;;;4961056;28;20083;-72
2023/05/19 04:05:06;;;;;;;9.63;3.00;;;10.00;99.90;;;;;;4974142;28;20070;-71
2023/05/19 04:07:32;;;;;;;8.93;3.50;;;10.00;99.90;;;;;;4963652;28;20100;-71
2023/05/19 04:09:57;;;;;;;9.32;3.10;;;10.00;99.90;;;;;;4968243;28;20046;-72
2023/05/19 04:12:23;;;;;;;9.80;3.50;;;10.00;99.90;;;;;;4947948;28;20439;-72
2023/05/19 04:14:49;;;;;;;9.32;3.17;;;10.00;99.90;;;;;;4957513;28;20140;-71
2023/05/19 04:17:15;;;;;;;12.07;3.83;;;10.00;99.90;;;;;;4987672;28;20045;-72
2023/05/19 04:19:42;;;;;;;8.40;3.00;;;10.00;99.90;;;;;;4973427;28;20046;-72
2023/05/19 04:22:07;;;;;;;9.27;3.53;;;10.00;99.90;;;;;;4946276;28;20521;-72
2023/05/19 04:24:33;;;;;;;12.38;3.67;;;10.00;99.90;;;;;;4955041;28;20053;-71
2023/05/19 04:27:03;;;;;;;11.15;3.33;;;10.00;99.90;;;;;;4963537;28;20613;-72
2023/05/19 04:29:31;;;;;;;13.05;3.83;;;10.00;99.90;;;;;;4964874;28;20046;-72
2023/05/19 04:31:57;;;;;;;8.60;3.22;;;10.00;99.90;;;;;;4975704;28;20053;-72
2023/05/19 04:34:23;;;;;;;12.32;4.10;;;10.10;99.90;;;;;;4948935;28;20041;-72
2023/05/19 04:36:49;;;;;;;10.13;3.30;;;10.10;99.90;;;;;;4951189;28;20046;-71
2023/05/19 04:39:15;;;;;;;8.05;3.42;;;10.10;99.90;;;;;;4935188;28;20034;-72
2023/05/19 04:41:43;;;;;;;8.18;3.45;;;10.20;99.90;;;;;;4960096;28;20441;-72
2023/05/19 04:44:09;;;;;;;12.30;3.58;;;10.20;99.90;;;;;;4986217;28;20456;-71
2023/05/19 04:46:35;;;;;;;12.88;3.67;;;10.30;99.90;;;;;;4967503;28;20070;-72
2023/05/19 04:49:03;;;;;;;11.80;3.17;;;10.30;99.90;;;;;;4948311;28;20076;-72
2023/05/19 04:51:30;;;;;;;9.38;3.60;;;10.30;99.90;;;;;;4982681;28;20133;-72
2023/05/19 04:53:56;;;;;;;10.77;3.85;;;10.30;99.90;;;;;;4969598;28;20054;-72
2023/05/19 04:56:23;;;;;;;9.65;3.17;;;10.40;99.90;;;;;;4989648;28;20343;-72
2023/05/19 04:58:49;;;;;;;12.55;3.22;;;10.40;99.90;;;;;;4951324;28;20049;-72
2023/05/19 05:01:15;;;;;;;9.13;3.40;;;10.40;99.90;;;;;;4971292;28;20044;-72
2023/05/19 05:03:41;;;;;;;10.70;3.72;;;10.50;99.90;;;;;;4971008;28;20380;-72
2023/05/19 05:06:10;;;;;;;9.77;3.20;;;10.50;99.90;;;;;;4968088;28;20802;-72
2023/05/19 05:08:38;;;;;;;;;;;10.50;99.90;;;;;;4955749;28;20501;-71
2023/05/19 05:11:04;;;;;;;11.00;3.78;;;10.60;99.90;;;;;;4985706;28;20000;-71
2023/05/19 05:13:30;;;;;;;13.10;3.67;;;10.60;99.90;;;;;;4968702;28;20055;-71
2023/05/19 05:15:57;;;;;;;7.40;3.10;;;10.60;99.90;;;;;;4958055;28;20125;-73
2023/05/19 05:18:23;;;;;;;8.77;3.15;;;10.60;99.90;;;;;;4959456;28;20076;-72
2023/05/19 05:20:49;;;;;;;8.48;3.35;;;10.60;99.90;;;;;;4983746;28;20043;-73
2023/05/19 05:23:15;;;;;;;8.30;3.13;;;10.70;99.90;;;;;;4991267;28;20049;-72
2023/05/19 05:25:41;;;;;;;11.10;3.50;;;10.70;99.90;;;;;;4948143;28;20054;-72
2023/05/19 05:28:07;;;;;;;8.60;3.33;;;10.70;99.90;;;;;;4940938;28;20107;-73
2023/05/19 05:30:33;;;;;;;10.32;3.58;;;10.80;99.90;;;;;;4951865;28;20107;-72
2023/05/19 05:32:59;;;;;;;10.65;3.90;;;10.80;99.90;;;;;;4969586;28;20109;-72
2023/05/19 05:35:25;;;;;;;8.27;3.22;;;10.80;99.90;;;;;;4968763;28;20050;-72
2023/05/19 05:37:51;;;;;;;8.75;3.78;;;10.80;99.90;;;;;;4967255;28;20046;-72
2023/05/19 05:40:17;;;;;;;10.85;3.70;;;10.80;99.90;;;;;;4963142;28;20054;-73
2023/05/19 05:42:43;;;;;;;10.23;3.17;;;10.90;99.90;;;;;;4968721;28;20542;-73
2023/05/19 05:45:09;;;;;;;9.02;2.75;;;10.90;99.90;;;;;;4973209;28;20051;-73
2023/05/19 05:47:40;;;;;;;9.65;3.28;;;11.00;99.90;;;;;;4965239;28;20789;-73
2023/05/19 05:50:08;;;;;;;11.98;3.28;;;11.10;99.90;;;;;;4970828;28;20116;-72
2023/05/19 05:52:34;;;;;;;9.93;2.78;;;11.10;99.90;;;;;;4948936;28;20109;-72
2023/05/19 05:55:00;;;;;;;13.13;3.03;;;11.10;99.90;;;;;;4950784;28;20103;-72
2023/05/19 05:57:29;;;;;;;11.18;3.05;;;11.20;99.90;;;;;;4960332;28;20108;-75
2023/05/19 05:59:56;;;;;;;10.15;3.05;;;11.20;99.90;;;;;;4988509;28;20047;-74
2023/05/19 06:02:22;;;;;;;11.05;3.08;;;11.30;99.90;;;;;;4987272;28;20090;-73
2023/05/19 06:04:48;;;;;;;8.48;2.78;;;11.40;99.90;;;;;;4976569;28;20092;-74
2023/05/19 06:07:16;;;;;;;10.82;2.78;;;11.40;99.90;;;;;;4983298;28;20100;-74
2023/05/19 06:09:43;;;;;;;7.85;2.60;;;11.40;99.90;;;;;;4964498;28;20050;-73
2023/05/19 06:12:10;;;;;;;10.37;2.77;;;11.50;99.90;;;;;;5004523;28;20121;-74
2023/05/19 06:14:36;;;;;;;8.68;2.72;;;11.50;99.90;;;;;;4956089;28;20133;-73
2023/05/19 06:17:03;;;;;;;7.35;2.80;;;11.60;99.90;;;;;;4974446;28;20390;-73
2023/05/19 06:19:29;;;;;;;10.30;2.83;;;11.60;99.90;;;;;;4960439;28;20043;-73
2023/05/19 06:21:55;;;;;;;8.75;2.50;;;11.70;99.90;;;;;;4960229;28;20080;-73
2023/05/19 06:24:21;;;;;;;7.05;2.65;;;11.70;99.90;;;;;;4984468;28;20126;-74
2023/05/19 06:26:47;;;;;;;8.57;2.70;;;11.80;99.90;;;;;;4977618;28;20181;-74
2023/05/19 06:29:12;;;;;;;7.38;3.03;;;11.80;99.90;;;;;;4966134;28;20111;-74
2023/05/19 06:31:38;;;;;;;12.00;2.75;;;11.90;99.90;;;;;;4949391;28;20080;-73
2023/05/19 06:34:04;;;;;;;9.73;2.75;;;12.00;99.90;;;;;;4977426;28;20046;-75
2023/05/19 06:36:31;;;;;;;8.40;2.40;;;12.00;99.80;;;;;;4979687;28;20042;-73
2023/05/19 06:38:57;;;;;;;7.57;2.70;;;12.10;99.80;;;;;;4954042;28;20068;-73
2023/05/19 06:41:25;;;;;;;14.27;2.92;;;12.20;99.40;;;;;;4946182;28;20038;-73
2023/05/19 06:43:50;;;;;;;7.55;2.30;;;12.20;99.40;;;;;;4978527;28;20042;-74
2023/05/19 06:46:16;;;;;;;5.78;2.42;;;12.30;99.20;;;;;;4950459;28;20051;-74
2023/05/19 06:48:42;;;;;;;9.55;2.63;;;12.30;99.10;;;;;;4971353;28;20051;-74
2023/05/19 06:51:09;;;;;;;12.00;3.03;;;12.40;99.30;;;;;;4982241;28;20045;-74
2023/05/19 06:53:34;;;;;;;12.93;3.45;;;12.40;99.20;;;;;;4982616;28;20050;-74
2023/05/19 06:56:00;;;;;;;4.82;2.22;;;12.50;99.00;;;;;;4974622;28;20679;-73
2023/05/19 06:58:26;;;;;;;10.10;2.30;;;12.60;99.10;;;;;;4967460;28;20050;-73
2023/05/19 07:00:52;;;;;;;6.90;2.28;;;12.60;98.90;;;;;;4971954;28;20039;-74
2023/05/19 07:03:20;;;;;;;10.98;2.47;;;12.60;98.40;;;;;;4971806;28;20042;-73
2023/05/19 07:05:46;;;;;;;6.22;2.08;;;12.70;98.30;;;;;;4972774;28;20318;-73
2023/05/19 07:08:11;;;;;;;5.78;2.40;;;12.80;98.10;;;;;;4973344;28;20058;-73
2023/05/19 07:10:37;;;;;;;5.85;2.50;;;12.80;97.90;;;;;;4994019;28;20054;-74
2023/05/19 07:13:05;;;;;;;10.30;2.40;;;12.90;97.70;;;;;;4960262;28;20049;-73
2023/05/19 07:15:30;;;;;;;9.23;2.40;;;12.90;97.60;;;;;;4991729;28;20053;-73
2023/05/19 07:17:58;;;;;;;10.02;2.90;;;13.00;97.60;;;;;;4993746;28;20046;-74
2023/05/19 07:20:25;;;;;;;6.30;2.45;;;13.10;97.70;;;;;;4969360;28;20069;-75
2023/05/19 07:22:52;;;;;;;10.10;2.63;;;13.10;97.40;;;;;;4980046;28;20085;-75
2023/05/19 07:25:22;;;;;;;8.32;2.47;;;13.20;97.40;;;;;;4975561;28;20081;-74
2023/05/19 07:27:48;;;;;;;10.30;2.70;;;13.20;97.40;;;;;;4935774;28;20061;-74
2023/05/19 07:30:13;;;;;;;7.40;2.55;;;13.30;97.90;;;;;;4952399;28;20042;-74
2023/05/19 07:32:40;;;;;;;9.27;2.90;;;13.30;97.50;;;;;;4988761;28;20046;-74
2023/05/19 07:35:06;;;;;;;13.80;2.40;;;13.40;97.60;;;;;;4970343;28;20054;-74
2023/05/19 07:37:32;;;;;;;8.93;2.08;;;13.50;97.70;;;;;;4981261;28;20053;-74
2023/05/19 07:39:59;;;;;;;9.48;2.83;;;13.50;97.70;;;;;;4983530;28;20140;-74
2023/05/19 07:42:27;;;;;;;9.85;2.90;;;13.60;97.80;;;;;;4989996;28;20085;-74
2023/05/19 07:44:52;;;;;;;6.38;2.10;;;13.60;97.60;;;;;;4969069;28;20120;-73
2023/05/19 07:47:20;;;;;;;8.70;2.30;;;13.70;97.70;;;;;;4994634;28;20049;-73
2023/05/19 07:49:46;;;;;;;7.13;2.25;;;13.80;97.90;;;;;;4965191;28;20050;-73
2023/05/19 07:52:17;;;;;;;10.15;2.58;;;13.90;97.50;;;;;;4970434;28;20548;-74
2023/05/19 07:54:43;;;;;;;6.00;2.00;;;13.90;97.30;;;;;;4957031;28;20084;-73
2023/05/19 07:57:09;;;;;;;8.73;2.85;;;14.00;97.20;;;;;;4970414;28;20043;-73
2023/05/19 07:59:35;;;;;;;6.32;2.28;;;14.10;97.00;;;;;;4975556;28;20056;-73
2023/05/19 08:02:00;;;;;;;7.75;2.45;;;14.20;96.70;;;;;;4971770;28;20498;-73
2023/05/19 08:04:26;;;;;;;7.00;2.35;;;14.30;96.40;;;;;;4980650;28;20043;-73
2023/05/19 08:06:52;;;;;;;12.88;2.20;;;14.30;96.30;;;;;;4975195;28;20057;-73
2023/05/19 08:09:18;;;;;;;9.02;2.15;;;14.40;96.10;;;;;;4965741;28;20412;-73
2023/05/19 08:11:45;;;;;;;6.15;1.70;;;14.50;95.40;;;;;;4976858;28;20502;-73
2023/05/19 08:14:11;;;;;;;5.80;1.95;;;14.50;94.90;;;;;;4974500;28;20486;-73
2023/05/19 08:16:37;;;;;;;8.02;1.80;;;14.60;95.10;;;;;;4978269;28;20046;-73
2023/05/19 08:19:05;;;;;;;6.15;2.17;;;14.70;94.90;;;;;;4927423;28;20114;-73
2023/05/19 08:21:34;;;;;;;6.57;2.00;;;14.80;95.10;;;;;;4948398;28;20042;-73
2023/05/19 08:24:00;;;;;;;9.00;2.25;;;14.90;94.60;;;;;;4991053;28;20073;-73
2023/05/19 08:26:27;;;;;;;5.07;1.77;;;14.90;94.20;;;;;;4953294;28;20129;-74
2023/05/19 08:28:52;;;;;;;6.85;1.90;;;15.00;93.90;;;;;;4951676;28;20082;-73
2023/05/19 08:31:18;;;;;;;7.43;2.17;;;15.10;94.20;;;;;;4969212;28;20074;-73
2023/05/19 08:33:44;;;;;;;6.35;1.60;;;15.20;94.00;;;;;;4987035;28;20057;-73
2023/05/19 08:36:10;;;;;;;5.10;2.13;;;15.30;93.70;;;;;;4969712;28;20058;-74
2023/05/19 08:38:36;;;;;;;7.35;2.20;;;15.40;93.90;;;;;;4951605;28;20051;-73
2023/05/19 08:41:01;;;;;;;4.80;1.90;;;15.50;94.10;;;;;;4985082;28;20046;-74
2023/05/19 08:43:27;;;;;;;7.72;1.83;;;15.50;93.90;;;;;;4970734;28;20039;-73
2023/05/19 08:45:54;;;;;;;5.10;1.75;;;15.60;93.10;;;;;;4992042;28;20057;-74
2023/05/19 08:48:20;;;;;;;4.65;2.10;;;15.70;92.00;;;;;;4975802;28;20053;-73
2023/05/19 08:50:56;;;;;;;4.93;2.40;;;15.70;92.60;;;;;;4967318;28;20050;-73
2023/05/19 08:53:35;;;;;;;6.30;2.10;;;15.80;92.90;;;;;;4978795;28;20104;-73
2023/05/19 08:56:09;;;;;;;5.75;2.10;;;15.90;93.30;;;;;;4971832;28;20049;-74
2023/05/19 08:58:35;;;;;;;7.55;1.80;;;16.00;93.00;;;;;;4976705;28;20363;-74
2023/05/19 09:01:01;;;;;;;4.13;1.52;;;16.10;93.00;;;;;;4975782;28;20487;-74
2023/05/19 09:03:27;;;;;;;6.20;1.60;;;16.20;92.60;;;;;;4973585;28;20048;-73
2023/05/19 09:05:53;;;;;;;7.53;1.88;;;16.20;92.40;;;;;;4974461;28;20049;-74
2023/05/19 09:08:18;;;;;;;6.15;1.63;;;16.30;91.90;;;;;;4977209;28;20379;-74
2023/05/19 09:10:44;;;;;;;5.97;1.90;;;16.40;91.10;;;;;;5010053;28;20050;-74
2023/05/19 09:13:10;;;;;;;6.43;1.90;;;16.50;91.00;;;;;;4965060;28;20061;-73
2023/05/19 09:15:37;;;;;;;6.38;1.80;;;16.50;91.00;;;;;;4978066;28;20053;-74
2023/05/19 09:18:10;;;;;;;3.88;1.70;;;16.60;90.70;;;;;;4950201;28;20050;-73
2023/05/19 09:20:38;;;;;;;6.25;1.60;;;16.60;90.60;;;;;;4950932;28;20459;-74
2023/05/19 09:23:04;;;;;;;;;;;16.80;89.00;;;;;;4950989;28;20459;-74
2023/05/19 09:25:30;;;;;;;5.70;1.60;;;16.80;88.20;;;;;;4976601;28;19923;-74
2023/05/19 09:27:56;;;;;;;5.75;1.40;;;16.80;87.70;;;;;;4994178;28;20053;-74
2023/05/19 09:30:25;;;;;;;5.93;1.52;;;16.80;87.70;;;;;;4968993;28;20043;-74
2023/05/19 09:32:50;;;;;;;5.13;1.92;;;16.90;87.80;;;;;;4972911;28;20057;-75
2023/05/19 09:35:18;;;;;;;6.22;1.73;;;16.90;88.60;;;;;;4984023;28;20054;-74
2023/05/19 09:37:45;;;;;;;8.75;1.90;;;16.80;87.20;;;;;;4984844;28;20041;-75
2023/05/19 09:40:14;;;;;;;4.57;1.70;;;16.80;86.40;;;;;;4987462;28;20078;-75
2023/05/19 09:42:42;;;;;;;5.05;1.70;;;16.80;86.30;;;;;;4994310;28;20053;-75
2023/05/19 09:45:10;;;;;;;;;;;16.90;87.10;;;;;;4962149;28;20056;-75
2023/05/19 09:47:38;;;;;;;9.48;1.70;;;17.00;85.70;;;;;;5013641;28;19913;-75
2023/05/19 09:50:05;;;;;;;;;;;17.00;85.20;;;;;;4982259;28;20037;-75
2023/05/19 09:52:37;;;;;;;4.53;1.60;;;17.10;84.70;;;;;;5028771;28;20242;-75
2023/05/19 09:55:07;;;;;;;5.40;2.20;;;17.00;85.10;;;;;;4983182;28;20064;-76
2023/05/19 09:57:36;;;;;;;4.38;1.55;;;17.00;84.90;;;;;;4975146;28;20057;-76
2023/05/19 10:00:39;;;;;;;4.22;1.60;;;17.00;84.20;;;;;;4983193;28;20042;-76
2023/05/19 10:02:59;;;;;;;6.95;1.80;;;17.00;85.70;;;;;;4984947;28;20110;-77
2023/05/19 10:05:26;;;;;;;7.13;1.70;;;17.00;85.00;;;;;;4957344;28;20046;-78
2023/05/19 10:07:53;;;;;;;4.55;1.40;;;17.10;83.80;;;;;;4963238;28;20116;-78
2023/05/19 10:10:21;;;;;;;6.30;1.58;;;17.20;85.20;;;;;;4958019;28;20068;-78
2023/05/19 10:12:48;;;;;;;10.00;1.50;;;17.30;84.50;;;;;;4978082;28;20053;-78
2023/05/19 10:15:16;;;;;;;8.38;2.15;;;17.40;84.90;;;;;;4978910;28;20061;-76
2023/05/19 10:17:43;;;;;;;5.13;1.70;;;17.30;82.80;;;;;;4973080;28;20105;-77
2023/05/19 10:20:12;;;;;;;5.68;1.63;;;17.40;82.90;;;;;;4994960;28;20169;-77
2023/05/19 10:22:39;;;;;;;7.15;1.88;;;17.60;85.30;;;;;;4959536;28;20042;-77
2023/05/19 10:25:05;;;;;;;3.45;1.30;;;17.80;82.40;;;;;;4963459;28;20046;-77
2023/05/19 10:27:33;;;;;;;5.30;1.30;;;17.90;81.20;;;;;;4950475;28;20153;-77
2023/05/19 10:30:01;;;;;;;4.53;1.50;;;18.10;82.00;;;;;;4976693;28;20046;-78
2023/05/19 10:32:28;;;;;;;7.00;1.30;;;18.10;78.60;;;;;;4960230;28;20043;-75
2023/05/19 10:35:20;;;;;;;4.40;1.40;;;18.20;79.80;;;;;;4963611;28;20050;-75
2023/05/19 10:38:10;;;;;;;3.92;1.40;;;18.20;79.10;;;;;;4969569;28;20047;-75
2023/05/19 10:40:53;;;;;;;5.10;1.58;;;18.20;78.90;;;;;;4987999;28;20038;-75
2023/05/19 10:43:37;;;;;;;4.85;1.42;;;18.30;77.50;;;;;;4986917;28;20042;-76
2023/05/19 10:46:03;;;;;;;6.97;1.52;;;18.30;79.20;;;;;;4990631;28;20046;-75
2023/05/19 10:48:31;;;;;;;11.45;1.55;;;18.40;78.50;;;;;;4975801;28;20072;-76
2023/05/19 10:50:57;;;;;;;4.95;1.10;;;18.60;77.70;;;;;;4961770;28;20133;-75
2023/05/19 10:53:29;;;;;;;3.17;1.30;;;18.70;77.60;;;;;;4964842;28;20184;-75
2023/05/19 10:55:55;;;;;;;4.93;1.10;;;18.90;77.40;;;;;;4996387;28;20064;-75
2023/05/19 10:58:43;;;;;;;4.22;1.40;;;19.10;77.50;;;;;;4985061;28;20043;-74
2023/05/19 11:01:13;;;;;;;2.95;1.27;;;18.80;74.90;;;;;;5006688;28;20188;-77
2023/05/19 11:03:57;;;;;;;3.28;1.50;;;18.70;76.50;;;;;;4959960;28;20049;-77
2023/05/19 11:06:34;;;;;;;5.72;1.45;;;18.70;75.20;;;;;;4982329;28;20050;-76
2023/05/19 11:09:15;;;;;;;4.25;1.20;;;18.70;77.20;;;;;;4987313;28;20699;-77
2023/05/19 11:11:45;;;;;;;7.75;1.48;;;18.90;76.20;;;;;;4984119;28;20051;-76
2023/05/19 11:14:13;;;;;;;3.00;1.00;;;18.90;75.40;;;;;;4958900;28;20054;-75
2023/05/19 11:16:44;;;;;;;3.53;1.52;;;18.90;75.00;;;;;;4972215;28;20054;-75
2023/05/19 11:19:36;;;;;;;4.13;1.20;;;19.00;74.90;;;;;;4981095;28;20038;-74
2023/05/19 11:22:14;;;;;;;2.90;1.20;;;19.00;73.30;;;;;;4973493;28;20097;-76
2023/05/19 11:24:49;;;;;;;5.80;1.20;;;19.20;75.40;;;;;;4975488;28;20073;-75
2023/05/19 11:27:31;;;;;;;5.80;1.27;;;19.20;75.70;;;;;;4978540;28;20046;-77
2023/05/19 11:30:13;;;;;;;3.75;1.20;;;19.20;75.40;;;;;;4984484;28;20107;-76
2023/05/19 11:32:41;;;;;;;5.90;1.40;;;19.20;75.20;;;;;;4987685;28;20673;-76
2023/05/19 11:35:08;;;;;;;2.83;1.23;;;19.10;72.20;;;;;;4966502;28;20375;-77
2023/05/19 11:37:35;;;;;;;2.78;1.17;;;18.90;70.10;;;;;;4966262;28;20311;-81
2023/05/19 11:40:03;;;;;;;4.63;1.02;;;18.90;72.60;;;;;;4963491;28;20398;-82
2023/05/19 11:42:30;;;;;;;3.67;1.20;;;19.20;74.10;;;;;;4961377;28;20042;-80
2023/05/19 11:44:56;;;;;;;4.55;1.48;;;19.40;69.70;;;;;;4950154;28;20680;-77
2023/05/19 11:47:22;;;;;;;3.05;1.13;;;19.60;73.10;;;;;;4950073;28;20045;-80
2023/05/19 11:49:48;;;;;;;7.18;1.48;;;19.70;69.60;;;;;;4970299;28;20053;-80
2023/05/19 11:52:15;;;;;;;3.72;1.50;;;19.70;69.50;;;;;;4949838;28;20495;-79
2023/05/19 11:54:41;;;;;;;6.35;1.42;;;19.90;69.70;;;;;;4977660;28;20077;-79
2023/05/19 11:57:10;;;;;;;5.45;1.52;;;20.20;68.60;;;;;;4981961;28;20467;-78
2023/05/19 11:59:39;;;;;;;2.97;1.30;;;20.40;69.90;;;;;;4946127;28;20119;-79
2023/05/19 12:02:12;;;;;;;8.45;1.60;;;20.50;67.40;;;;;;4963600;28;20041;-80
2023/05/19 12:04:38;;;;;;;5.65;1.55;;;20.60;66.60;;;;;;4979008;28;20046;-79
2023/05/19 12:07:04;;;;;;;3.30;1.38;;;20.70;67.20;;;;;;4992642;28;20070;-78
2023/05/19 12:09:33;;;;;;;6.15;1.58;;;20.80;65.10;;;;;;4957116;28;20100;-78
2023/05/19 12:11:59;;;;;;;4.95;1.85;;;20.90;64.40;;;;;;4964583;28;20508;-79
2023/05/19 12:14:26;;;;;;;18.02;2.35;;;20.80;63.30;;;;;;4984238;28;20072;-79
2023/05/19 12:16:51;;;;;;;5.43;1.30;;;20.70;65.90;;;;;;4966747;28;20129;-78
2023/05/19 12:19:20;;;;;;;2.38;1.13;;;20.80;64.80;;;;;;4997413;28;20808;-79
2023/05/19 12:21:46;;;;;;;6.25;1.30;;;20.60;64.00;;;;;;4975702;28;20046;-80
2023/05/19 12:24:13;;;;;;;2.45;1.02;;;20.50;64.50;;;;;;4969919;28;20103;-80
2023/05/19 12:26:43;;;;;;;3.88;1.27;;;20.30;63.80;;;;;;4959762;28;20054;-80
2023/05/19 12:29:08;;;;;;;6.80;1.42;;;20.20;63.80;;;;;;5000563;28;20046;-78
2023/05/19 12:31:34;;;;;;;28.55;3.28;;;20.10;64.50;;;;;;4980907;28;20049;-76
2023/05/19 12:34:00;;;;;;;8.82;1.95;;;20.10;65.20;;;;;;4992633;28;20056;-76
2023/05/19 12:36:27;;;;;;;7.35;1.67;;;19.90;64.50;;;;;;4951425;28;20111;-77
2023/05/19 12:38:54;;;;;;;3.95;1.23;;;19.90;63.60;;;;;;4964958;28;20045;-77
2023/05/19 12:41:19;;;;;;;5.35;1.83;;;19.80;63.40;;;;;;4939881;28;20132;-77
2023/05/19 12:43:49;;;;;;;3.63;1.35;;;19.80;62.00;;;;;;4953426;28;20081;-76
2023/05/19 12:46:17;;;;;;;2.53;1.17;;;19.80;64.00;;;;;;4996121;28;20103;-76
2023/05/19 12:48:43;;;;;;;3.80;1.50;;;19.50;62.20;;;;;;4973334;28;20092;-74
2023/05/19 12:51:10;;;;;;;7.70;1.38;;;19.20;62.60;;;;;;4956951;28;20459;-74
2023/05/19 12:53:36;;;;;;;2.30;1.00;;;19.20;65.30;;;;;;4943320;28;20058;-75